sensor_id;sensor_type;location;lat;lon;timestamp;P1;durP1;ratioP1;P2;durP2;ratioP2
50549;SDS011;36505;52.512;13.460;2022-10-26T00:02:01;16.55;;;8.23;;
50549;SDS011;36505;52.512;13.460;2022-10-26T00:04:27;14.38;;;8.57;;
50549;SDS011;36505;52.512;13.460;2022-10-26T00:06:52;14.93;;;7.70;;
50549;SDS011;36505;52.512;13.460;2022-10-26T00:09:17;17.88;;;8.93;;
50549;SDS011;36505;52.512;13.460;2022-10-26T00:11:43;15.93;;;8.05;;
50549;SDS011;36505;52.512;13.460;2022-10-26T00:14:08;17.25;;;8.88;;
50549;SDS011;36505;52.512;13.460;2022-10-26T00:16:33;16.42;;;8.50;;
50549;SDS011;36505;52.512;13.460;2022-10-26T00:18:59;17.52;;;8.93;;
50549;SDS011;36505;52.512;13.460;2022-10-26T00:21:24;21.23;;;9.15;;
50549;SDS011;36505;52.512;13.460;2022-10-26T00:23:49;20.98;;;9.13;;
50549;SDS011;36505;52.512;13.460;2022-10-26T00:26:15;12.55;;;7.65;;
50549;SDS011;36505;52.512;13.460;2022-10-26T00:28:40;15.18;;;8.85;;
50549;SDS011;36505;52.512;13.460;2022-10-26T00:31:07;16.33;;;7.78;;
50549;SDS011;36505;52.512;13.460;2022-10-26T00:33:36;15.45;;;8.00;;
50549;SDS011;36505;52.512;13.460;2022-10-26T00:36:01;14.95;;;8.55;;
50549;SDS011;36505;52.512;13.460;2022-10-26T00:38:27;14.00;;;8.43;;
50549;SDS011;36505;52.512;13.460;2022-10-26T00:40:52;13.95;;;8.07;;
50549;SDS011;36505;52.512;13.460;2022-10-26T00:45:46;17.98;;;6.93;;
50549;SDS011;36505;52.512;13.460;2022-10-26T00:48:35;18.95;;;8.15;;
50549;SDS011;36505;52.512;13.460;2022-10-26T00:51:03;13.52;;;7.68;;
50549;SDS011;36505;52.512;13.460;2022-10-26T00:53:32;12.23;;;7.60;;
50549;SDS011;36505;52.512;13.460;2022-10-26T00:55:58;20.88;;;9.48;;
50549;SDS011;36505;52.512;13.460;2022-10-26T00:58:25;18.00;;;8.57;;
50549;SDS011;36505;52.512;13.460;2022-10-26T01:00:51;16.77;;;7.68;;
50549;SDS011;36505;52.512;13.460;2022-10-26T01:03:17;16.75;;;8.70;;
50549;SDS011;36505;52.512;13.460;2022-10-26T01:05:46;16.20;;;7.45;;
50549;SDS011;36505;52.512;13.460;2022-10-26T01:08:14;15.63;;;8.05;;
50549;SDS011;36505;52.512;13.460;2022-10-26T01:10:40;16.45;;;8.00;;
50549;SDS011;36505;52.512;13.460;2022-10-26T01:13:07;16.55;;;7.22;;
50549;SDS011;36505;52.512;13.460;2022-10-26T01:18:16;15.32;;;7.30;;
50549;SDS011;36505;52.512;13.460;2022-10-26T01:20:53;14.88;;;7.88;;
50549;SDS011;36505;52.512;13.460;2022-10-26T01:33:55;10.95;;;6.15;;
50549;SDS011;36505;52.512;13.460;2022-10-26T01:36:34;13.80;;;7.63;;
50549;SDS011;36505;52.512;13.460;2022-10-26T01:39:14;14.65;;;7.50;;
50549;SDS011;36505;52.512;13.460;2022-10-26T01:41:46;13.65;;;6.82;;
50549;SDS011;36505;52.512;13.460;2022-10-26T01:44:18;11.52;;;7.15;;
50549;SDS011;36505;52.512;13.460;2022-10-26T01:47:06;11.70;;;6.70;;
50549;SDS011;36505;52.512;13.460;2022-10-26T01:49:34;17.67;;;7.35;;
50549;SDS011;36505;52.512;13.460;2022-10-26T01:52:03;11.00;;;6.50;;
50549;SDS011;36505;52.512;13.460;2022-10-26T01:54:29;12.35;;;6.82;;
50549;SDS011;36505;52.512;13.460;2022-10-26T01:56:56;15.15;;;7.47;;
50549;SDS011;36505;52.512;13.460;2022-10-26T02:05:04;12.93;;;6.82;;
50549;SDS011;36505;52.512;13.460;2022-10-26T02:18:18;14.95;;;7.45;;
50549;SDS011;36505;52.512;13.460;2022-10-26T02:20:52;16.27;;;7.20;;
50549;SDS011;36505;52.512;13.460;2022-10-26T02:23:22;15.50;;;8.40;;
50549;SDS011;36505;52.512;13.460;2022-10-26T02:25:50;17.08;;;7.45;;
50549;SDS011;36505;52.512;13.460;2022-10-26T02:28:21;14.52;;;8.05;;
50549;SDS011;36505;52.512;13.460;2022-10-26T02:30:52;15.40;;;7.85;;
50549;SDS011;36505;52.512;13.460;2022-10-26T02:33:21;13.60;;;8.13;;
50549;SDS011;36505;52.512;13.460;2022-10-26T02:35:50;18.90;;;8.88;;
50549;SDS011;36505;52.512;13.460;2022-10-26T02:38:18;17.08;;;7.85;;
50549;SDS011;36505;52.512;13.460;2022-10-26T02:40:45;12.35;;;7.63;;
50549;SDS011;36505;52.512;13.460;2022-10-26T02:43:14;15.27;;;7.85;;
50549;SDS011;36505;52.512;13.460;2022-10-26T02:45:47;14.43;;;8.10;;
50549;SDS011;36505;52.512;13.460;2022-10-26T02:48:17;15.35;;;8.15;;
50549;SDS011;36505;52.512;13.460;2022-10-26T02:53:33;18.95;;;7.78;;
50549;SDS011;36505;52.512;13.460;2022-10-26T02:56:01;14.10;;;7.22;;
50549;SDS011;36505;52.512;13.460;2022-10-26T02:58:32;14.93;;;7.85;;
50549;SDS011;36505;52.512;13.460;2022-10-26T03:01:05;13.55;;;7.75;;
50549;SDS011;36505;52.512;13.460;2022-10-26T03:03:31;14.50;;;8.20;;
50549;SDS011;36505;52.512;13.460;2022-10-26T03:05:57;15.10;;;7.28;;
50549;SDS011;36505;52.512;13.460;2022-10-26T03:08:22;14.88;;;8.00;;
50549;SDS011;36505;52.512;13.460;2022-10-26T03:10:48;17.60;;;7.68;;
50549;SDS011;36505;52.512;13.460;2022-10-26T03:13:13;12.57;;;7.32;;
50549;SDS011;36505;52.512;13.460;2022-10-26T03:15:39;17.25;;;8.40;;
50549;SDS011;36505;52.512;13.460;2022-10-26T03:18:04;16.33;;;7.82;;
50549;SDS011;36505;52.512;13.460;2022-10-26T03:20:30;15.63;;;7.88;;
50549;SDS011;36505;52.512;13.460;2022-10-26T03:22:55;17.75;;;8.07;;
50549;SDS011;36505;52.512;13.460;2022-10-26T03:25:21;12.32;;;7.18;;
50549;SDS011;36505;52.512;13.460;2022-10-26T03:27:53;14.30;;;7.18;;
50549;SDS011;36505;52.512;13.460;2022-10-26T03:30:20;13.30;;;7.35;;
50549;SDS011;36505;52.512;13.460;2022-10-26T03:32:46;14.30;;;8.10;;
50549;SDS011;36505;52.512;13.460;2022-10-26T03:35:11;11.32;;;7.18;;
50549;SDS011;36505;52.512;13.460;2022-10-26T03:37:36;13.32;;;7.60;;
50549;SDS011;36505;52.512;13.460;2022-10-26T03:40:01;16.67;;;8.18;;
50549;SDS011;36505;52.512;13.460;2022-10-26T03:42:27;11.68;;;7.38;;
50549;SDS011;36505;52.512;13.460;2022-10-26T03:44:52;12.10;;;6.50;;
50549;SDS011;36505;52.512;13.460;2022-10-26T03:47:17;14.75;;;8.20;;
50549;SDS011;36505;52.512;13.460;2022-10-26T03:49:43;11.10;;;7.28;;
50549;SDS011;36505;52.512;13.460;2022-10-26T03:52:08;16.63;;;7.82;;
50549;SDS011;36505;52.512;13.460;2022-10-26T03:54:33;13.60;;;6.72;;
50549;SDS011;36505;52.512;13.460;2022-10-26T03:56:59;12.63;;;7.13;;
50549;SDS011;36505;52.512;13.460;2022-10-26T03:59:24;11.30;;;6.00;;
50549;SDS011;36505;52.512;13.460;2022-10-26T04:01:49;10.38;;;6.05;;
50549;SDS011;36505;52.512;13.460;2022-10-26T04:04:15;11.48;;;6.68;;
50549;SDS011;36505;52.512;13.460;2022-10-26T04:06:40;12.80;;;6.72;;
50549;SDS011;36505;52.512;13.460;2022-10-26T04:09:05;16.08;;;6.63;;
50549;SDS011;36505;52.512;13.460;2022-10-26T04:11:32;12.88;;;6.40;;
50549;SDS011;36505;52.512;13.460;2022-10-26T04:13:57;15.48;;;7.45;;
50549;SDS011;36505;52.512;13.460;2022-10-26T04:16:24;11.20;;;6.38;;
50549;SDS011;36505;52.512;13.460;2022-10-26T04:18:50;13.45;;;6.53;;
50549;SDS011;36505;52.512;13.460;2022-10-26T04:21:15;13.55;;;7.47;;
50549;SDS011;36505;52.512;13.460;2022-10-26T04:23:41;9.98;;;6.03;;
50549;SDS011;36505;52.512;13.460;2022-10-26T04:26:06;11.68;;;5.78;;
50549;SDS011;36505;52.512;13.460;2022-10-26T04:28:32;10.88;;;6.80;;
50549;SDS011;36505;52.512;13.460;2022-10-26T04:30:57;13.10;;;6.95;;
50549;SDS011;36505;52.512;13.460;2022-10-26T04:33:22;12.20;;;5.65;;
50549;SDS011;36505;52.512;13.460;2022-10-26T04:35:48;12.60;;;6.07;;
50549;SDS011;36505;52.512;13.460;2022-10-26T04:38:13;12.15;;;7.03;;
50549;SDS011;36505;52.512;13.460;2022-10-26T04:40:38;17.98;;;9.38;;
50549;SDS011;36505;52.512;13.460;2022-10-26T04:43:04;14.88;;;8.35;;
50549;SDS011;36505;52.512;13.460;2022-10-26T04:45:29;20.50;;;8.35;;
50549;SDS011;36505;52.512;13.460;2022-10-26T04:48:28;12.23;;;7.00;;
50549;SDS011;36505;52.512;13.460;2022-10-26T04:50:46;13.02;;;6.60;;
50549;SDS011;36505;52.512;13.460;2022-10-26T04:53:11;13.75;;;7.05;;
50549;SDS011;36505;52.512;13.460;2022-10-26T04:55:37;17.65;;;7.57;;
50549;SDS011;36505;52.512;13.460;2022-10-26T04:58:02;16.77;;;9.90;;
50549;SDS011;36505;52.512;13.460;2022-10-26T05:00:28;14.88;;;6.65;;
50549;SDS011;36505;52.512;13.460;2022-10-26T05:03:01;20.05;;;7.53;;
50549;SDS011;36505;52.512;13.460;2022-10-26T05:05:29;10.85;;;6.78;;
50549;SDS011;36505;52.512;13.460;2022-10-26T05:07:56;15.05;;;6.30;;
50549;SDS011;36505;52.512;13.460;2022-10-26T05:10:21;17.20;;;9.85;;
50549;SDS011;36505;52.512;13.460;2022-10-26T05:12:51;16.73;;;9.77;;
50549;SDS011;36505;52.512;13.460;2022-10-26T05:15:18;15.82;;;7.43;;
50549;SDS011;36505;52.512;13.460;2022-10-26T05:17:43;11.73;;;7.03;;
50549;SDS011;36505;52.512;13.460;2022-10-26T05:20:08;10.43;;;6.00;;
50549;SDS011;36505;52.512;13.460;2022-10-26T05:22:37;15.75;;;7.53;;
50549;SDS011;36505;52.512;13.460;2022-10-26T05:25:03;13.68;;;8.20;;
50549;SDS011;36505;52.512;13.460;2022-10-26T05:27:28;15.77;;;8.25;;
50549;SDS011;36505;52.512;13.460;2022-10-26T05:29:54;19.60;;;9.98;;
50549;SDS011;36505;52.512;13.460;2022-10-26T05:32:19;16.35;;;8.77;;
50549;SDS011;36505;52.512;13.460;2022-10-26T05:34:44;16.80;;;7.43;;
50549;SDS011;36505;52.512;13.460;2022-10-26T05:37:10;15.15;;;8.43;;
50549;SDS011;36505;52.512;13.460;2022-10-26T05:39:35;26.02;;;9.43;;
50549;SDS011;36505;52.512;13.460;2022-10-26T05:42:00;17.10;;;7.05;;
50549;SDS011;36505;52.512;13.460;2022-10-26T05:44:26;25.58;;;11.15;;
50549;SDS011;36505;52.512;13.460;2022-10-26T05:46:51;17.23;;;7.13;;
50549;SDS011;36505;52.512;13.460;2022-10-26T05:49:16;16.52;;;7.88;;
50549;SDS011;36505;52.512;13.460;2022-10-26T05:51:42;15.25;;;8.60;;
50549;SDS011;36505;52.512;13.460;2022-10-26T05:54:07;14.43;;;7.85;;
50549;SDS011;36505;52.512;13.460;2022-10-26T05:56:36;13.77;;;7.95;;
50549;SDS011;36505;52.512;13.460;2022-10-26T05:59:05;17.55;;;7.53;;
50549;SDS011;36505;52.512;13.460;2022-10-26T06:04:29;24.08;;;7.45;;
50549;SDS011;36505;52.512;13.460;2022-10-26T06:06:56;14.55;;;7.25;;
50549;SDS011;36505;52.512;13.460;2022-10-26T06:09:23;11.68;;;7.53;;
50549;SDS011;36505;52.512;13.460;2022-10-26T06:11:49;30.45;;;8.25;;
50549;SDS011;36505;52.512;13.460;2022-10-26T06:14:14;12.57;;;8.23;;
50549;SDS011;36505;52.512;13.460;2022-10-26T06:16:58;13.65;;;7.82;;
50549;SDS011;36505;52.512;13.460;2022-10-26T06:27:35;12.80;;;7.30;;
50549;SDS011;36505;52.512;13.460;2022-10-26T06:30:10;16.63;;;8.20;;
50549;SDS011;36505;52.512;13.460;2022-10-26T06:32:39;13.57;;;7.50;;
50549;SDS011;36505;52.512;13.460;2022-10-26T06:35:31;15.80;;;7.60;;
50549;SDS011;36505;52.512;13.460;2022-10-26T06:38:15;15.77;;;7.50;;
50549;SDS011;36505;52.512;13.460;2022-10-26T06:40:43;16.30;;;6.88;;
50549;SDS011;36505;52.512;13.460;2022-10-26T06:43:12;13.52;;;7.03;;
50549;SDS011;36505;52.512;13.460;2022-10-26T06:48:14;14.48;;;7.25;;
50549;SDS011;36505;52.512;13.460;2022-10-26T06:50:50;13.82;;;6.97;;
50549;SDS011;36505;52.512;13.460;2022-10-26T06:55:55;19.52;;;6.43;;
50549;SDS011;36505;52.512;13.460;2022-10-26T06:58:23;17.60;;;9.73;;
50549;SDS011;36505;52.512;13.460;2022-10-26T07:00:53;12.48;;;7.88;;
50549;SDS011;36505;52.512;13.460;2022-10-26T07:03:20;15.30;;;7.53;;
50549;SDS011;36505;52.512;13.460;2022-10-26T07:05:45;11.90;;;6.40;;
50549;SDS011;36505;52.512;13.460;2022-10-26T07:08:11;13.55;;;7.10;;
50549;SDS011;36505;52.512;13.460;2022-10-26T07:10:36;14.52;;;7.15;;
50549;SDS011;36505;52.512;13.460;2022-10-26T07:13:06;12.80;;;8.40;;
50549;SDS011;36505;52.512;13.460;2022-10-26T07:15:35;11.43;;;7.47;;
50549;SDS011;36505;52.512;13.460;2022-10-26T07:18:04;15.10;;;7.82;;
50549;SDS011;36505;52.512;13.460;2022-10-26T07:20:31;17.23;;;6.72;;
50549;SDS011;36505;52.512;13.460;2022-10-26T07:23:00;11.18;;;6.75;;
50549;SDS011;36505;52.512;13.460;2022-10-26T07:25:26;12.02;;;6.82;;
50549;SDS011;36505;52.512;13.460;2022-10-26T07:27:55;10.73;;;6.72;;
50549;SDS011;36505;52.512;13.460;2022-10-26T07:30:22;25.30;;;6.50;;
50549;SDS011;36505;52.512;13.460;2022-10-26T07:32:48;14.50;;;7.57;;
50549;SDS011;36505;52.512;13.460;2022-10-26T07:35:13;13.82;;;8.30;;
50549;SDS011;36505;52.512;13.460;2022-10-26T07:37:38;14.77;;;7.70;;
50549;SDS011;36505;52.512;13.460;2022-10-26T07:40:04;11.15;;;7.03;;
50549;SDS011;36505;52.512;13.460;2022-10-26T07:42:30;10.10;;;6.43;;
50549;SDS011;36505;52.512;13.460;2022-10-26T07:44:56;16.42;;;7.22;;
50549;SDS011;36505;52.512;13.460;2022-10-26T07:47:21;10.25;;;6.50;;
50549;SDS011;36505;52.512;13.460;2022-10-26T07:49:46;14.20;;;6.70;;
50549;SDS011;36505;52.512;13.460;2022-10-26T07:52:12;13.32;;;7.40;;
50549;SDS011;36505;52.512;13.460;2022-10-26T07:54:37;13.40;;;7.70;;
50549;SDS011;36505;52.512;13.460;2022-10-26T07:57:02;15.75;;;8.43;;
50549;SDS011;36505;52.512;13.460;2022-10-26T07:59:28;16.20;;;7.13;;
50549;SDS011;36505;52.512;13.460;2022-10-26T08:01:53;16.10;;;7.63;;
50549;SDS011;36505;52.512;13.460;2022-10-26T08:04:18;13.45;;;6.60;;
50549;SDS011;36505;52.512;13.460;2022-10-26T08:06:44;9.43;;;6.00;;
50549;SDS011;36505;52.512;13.460;2022-10-26T08:09:09;13.93;;;5.97;;
50549;SDS011;36505;52.512;13.460;2022-10-26T08:11:35;8.73;;;5.63;;
50549;SDS011;36505;52.512;13.460;2022-10-26T08:14:01;11.85;;;5.32;;
50549;SDS011;36505;52.512;13.460;2022-10-26T08:16:27;11.70;;;4.93;;
50549;SDS011;36505;52.512;13.460;2022-10-26T08:18:52;9.05;;;4.90;;
50549;SDS011;36505;52.512;13.460;2022-10-26T08:21:17;9.73;;;5.18;;
50549;SDS011;36505;52.512;13.460;2022-10-26T08:23:43;13.05;;;5.57;;
50549;SDS011;36505;52.512;13.460;2022-10-26T08:26:08;9.15;;;5.00;;
50549;SDS011;36505;52.512;13.460;2022-10-26T08:28:37;12.73;;;5.63;;
50549;SDS011;36505;52.512;13.460;2022-10-26T08:31:03;12.23;;;5.45;;
50549;SDS011;36505;52.512;13.460;2022-10-26T08:33:29;11.45;;;5.10;;
50549;SDS011;36505;52.512;13.460;2022-10-26T08:35:55;14.52;;;5.60;;
50549;SDS011;36505;52.512;13.460;2022-10-26T08:38:21;11.45;;;5.40;;
50549;SDS011;36505;52.512;13.460;2022-10-26T08:40:47;8.35;;;5.18;;
50549;SDS011;36505;52.512;13.460;2022-10-26T08:46:04;13.95;;;5.82;;
50549;SDS011;36505;52.512;13.460;2022-10-26T08:48:36;8.57;;;5.53;;
50549;SDS011;36505;52.512;13.460;2022-10-26T08:51:10;14.30;;;6.05;;
50549;SDS011;36505;52.512;13.460;2022-10-26T08:53:55;9.60;;;5.05;;
50549;SDS011;36505;52.512;13.460;2022-10-26T08:56:25;10.27;;;6.40;;
50549;SDS011;36505;52.512;13.460;2022-10-26T08:59:54;10.13;;;5.07;;
50549;SDS011;36505;52.512;13.460;2022-10-26T09:02:12;11.23;;;5.35;;
50549;SDS011;36505;52.512;13.460;2022-10-26T09:04:39;9.55;;;5.75;;
50549;SDS011;36505;52.512;13.460;2022-10-26T09:12:10;9.65;;;5.80;;
50549;SDS011;36505;52.512;13.460;2022-10-26T09:20:49;8.15;;;5.13;;
50549;SDS011;36505;52.512;13.460;2022-10-26T09:26:22;10.27;;;5.25;;
50549;SDS011;36505;52.512;13.460;2022-10-26T09:28:54;12.18;;;5.25;;
50549;SDS011;36505;52.512;13.460;2022-10-26T09:31:22;15.48;;;6.03;;
50549;SDS011;36505;52.512;13.460;2022-10-26T09:33:49;11.00;;;5.15;;
50549;SDS011;36505;52.512;13.460;2022-10-26T09:36:17;17.58;;;5.63;;
50549;SDS011;36505;52.512;13.460;2022-10-26T09:44:00;9.10;;;5.22;;
50549;SDS011;36505;52.512;13.460;2022-10-26T09:46:47;9.80;;;4.80;;
50549;SDS011;36505;52.512;13.460;2022-10-26T09:49:17;9.27;;;4.70;;
50549;SDS011;36505;52.512;13.460;2022-10-26T09:51:47;8.75;;;5.03;;
50549;SDS011;36505;52.512;13.460;2022-10-26T09:54:14;7.57;;;4.40;;
50549;SDS011;36505;52.512;13.460;2022-10-26T09:56:46;11.82;;;5.00;;
50549;SDS011;36505;52.512;13.460;2022-10-26T09:59:15;8.68;;;5.20;;
50549;SDS011;36505;52.512;13.460;2022-10-26T10:01:44;7.93;;;5.25;;
50549;SDS011;36505;52.512;13.460;2022-10-26T10:06:45;10.82;;;4.65;;
50549;SDS011;36505;52.512;13.460;2022-10-26T10:14:08;9.82;;;4.55;;
50549;SDS011;36505;52.512;13.460;2022-10-26T10:16:39;9.43;;;4.20;;
50549;SDS011;36505;52.512;13.460;2022-10-26T10:19:11;11.82;;;5.20;;
50549;SDS011;36505;52.512;13.460;2022-10-26T10:21:47;9.23;;;4.15;;
50549;SDS011;36505;52.512;13.460;2022-10-26T10:27:00;10.32;;;4.25;;
50549;SDS011;36505;52.512;13.460;2022-10-26T10:29:41;5.13;;;3.15;;
50549;SDS011;36505;52.512;13.460;2022-10-26T10:32:15;5.63;;;3.20;;
50549;SDS011;36505;52.512;13.460;2022-10-26T10:34:44;11.35;;;3.00;;
50549;SDS011;36505;52.512;13.460;2022-10-26T10:37:18;10.07;;;3.22;;
50549;SDS011;36505;52.512;13.460;2022-10-26T10:39:48;9.30;;;3.38;;
50549;SDS011;36505;52.512;13.460;2022-10-26T10:42:19;9.50;;;3.83;;
50549;SDS011;36505;52.512;13.460;2022-10-26T10:44:49;6.28;;;2.35;;
50549;SDS011;36505;52.512;13.460;2022-10-26T10:47:18;5.25;;;2.08;;
50549;SDS011;36505;52.512;13.460;2022-10-26T10:49:49;5.35;;;2.22;;
50549;SDS011;36505;52.512;13.460;2022-10-26T11:00:23;9.60;;;1.65;;
50549;SDS011;36505;52.512;13.460;2022-10-26T11:08:18;5.80;;;1.85;;
50549;SDS011;36505;52.512;13.460;2022-10-26T11:10:59;24.90;;;3.20;;
50549;SDS011;36505;52.512;13.460;2022-10-26T11:13:32;6.88;;;2.90;;
50549;SDS011;36505;52.512;13.460;2022-10-26T11:16:04;10.55;;;2.95;;
50549;SDS011;36505;52.512;13.460;2022-10-26T11:18:36;5.85;;;2.05;;
50549;SDS011;36505;52.512;13.460;2022-10-26T11:21:27;9.43;;;2.58;;
50549;SDS011;36505;52.512;13.460;2022-10-26T11:26:38;6.05;;;2.33;;
50549;SDS011;36505;52.512;13.460;2022-10-26T11:29:11;9.32;;;2.72;;
50549;SDS011;36505;52.512;13.460;2022-10-26T11:31:41;8.93;;;2.10;;
50549;SDS011;36505;52.512;13.460;2022-10-26T11:34:25;7.65;;;1.95;;
50549;SDS011;36505;52.512;13.460;2022-10-26T11:36:57;11.10;;;2.40;;
50549;SDS011;36505;52.512;13.460;2022-10-26T11:39:32;4.57;;;2.13;;
50549;SDS011;36505;52.512;13.460;2022-10-26T11:42:20;6.60;;;2.05;;
50549;SDS011;36505;52.512;13.460;2022-10-26T11:44:55;6.82;;;1.90;;
50549;SDS011;36505;52.512;13.460;2022-10-26T11:47:27;5.05;;;1.65;;
50549;SDS011;36505;52.512;13.460;2022-10-26T11:50:04;5.32;;;2.22;;
50549;SDS011;36505;52.512;13.460;2022-10-26T11:55:12;5.30;;;2.08;;
50549;SDS011;36505;52.512;13.460;2022-10-26T11:57:38;2.97;;;1.58;;
50549;SDS011;36505;52.512;13.460;2022-10-26T12:02:34;5.22;;;1.80;;
50549;SDS011;36505;52.512;13.460;2022-10-26T12:07:42;5.10;;;1.60;;
50549;SDS011;36505;52.512;13.460;2022-10-26T12:10:19;7.38;;;1.90;;
50549;SDS011;36505;52.512;13.460;2022-10-26T12:13:13;6.00;;;2.10;;
50549;SDS011;36505;52.512;13.460;2022-10-26T12:18:10;5.30;;;2.15;;
50549;SDS011;36505;52.512;13.460;2022-10-26T12:20:57;11.45;;;1.70;;
50549;SDS011;36505;52.512;13.460;2022-10-26T12:23:29;4.63;;;1.52;;
50549;SDS011;36505;52.512;13.460;2022-10-26T12:26:22;5.07;;;2.08;;
50549;SDS011;36505;52.512;13.460;2022-10-26T12:34:00;4.32;;;1.85;;
50549;SDS011;36505;52.512;13.460;2022-10-26T12:39:32;5.43;;;1.40;;
50549;SDS011;36505;52.512;13.460;2022-10-26T12:44:35;20.45;;;1.98;;
50549;SDS011;36505;52.512;13.460;2022-10-26T12:47:01;3.70;;;1.88;;
50549;SDS011;36505;52.512;13.460;2022-10-26T12:52:43;5.72;;;1.40;;
50549;SDS011;36505;52.512;13.460;2022-10-26T12:55:22;4.47;;;1.40;;
50549;SDS011;36505;52.512;13.460;2022-10-26T13:00:26;5.65;;;1.67;;
50549;SDS011;36505;52.512;13.460;2022-10-26T13:08:44;3.90;;;1.48;;
50549;SDS011;36505;52.512;13.460;2022-10-26T13:11:17;4.65;;;1.80;;
50549;SDS011;36505;52.512;13.460;2022-10-26T13:13:54;6.35;;;1.90;;
50549;SDS011;36505;52.512;13.460;2022-10-26T13:16:27;6.78;;;1.95;;
50549;SDS011;36505;52.512;13.460;2022-10-26T13:18:53;3.13;;;2.05;;
50549;SDS011;36505;52.512;13.460;2022-10-26T13:21:19;6.18;;;2.28;;
50549;SDS011;36505;52.512;13.460;2022-10-26T13:26:19;6.72;;;1.70;;
50549;SDS011;36505;52.512;13.460;2022-10-26T13:33:41;6.28;;;1.80;;
50549;SDS011;36505;52.512;13.460;2022-10-26T13:36:22;8.70;;;1.92;;
50549;SDS011;36505;52.512;13.460;2022-10-26T13:38:58;4.93;;;1.98;;
50549;SDS011;36505;52.512;13.460;2022-10-26T13:41:36;10.23;;;2.05;;
50549;SDS011;36505;52.512;13.460;2022-10-26T13:44:05;6.10;;;1.60;;
50549;SDS011;36505;52.512;13.460;2022-10-26T13:46:36;9.70;;;1.88;;
50549;SDS011;36505;52.512;13.460;2022-10-26T13:49:10;11.40;;;2.00;;
50549;SDS011;36505;52.512;13.460;2022-10-26T13:51:43;6.57;;;2.25;;
50549;SDS011;36505;52.512;13.460;2022-10-26T13:59:26;8.80;;;1.88;;
50549;SDS011;36505;52.512;13.460;2022-10-26T14:02:07;6.57;;;2.38;;
50549;SDS011;36505;52.512;13.460;2022-10-26T14:04:40;8.05;;;1.80;;
50549;SDS011;36505;52.512;13.460;2022-10-26T14:07:11;8.38;;;1.90;;
50549;SDS011;36505;52.512;13.460;2022-10-26T14:09:41;5.15;;;2.10;;
50549;SDS011;36505;52.512;13.460;2022-10-26T14:12:08;8.57;;;2.17;;
50549;SDS011;36505;52.512;13.460;2022-10-26T14:14:35;9.68;;;2.03;;
50549;SDS011;36505;52.512;13.460;2022-10-26T14:17:02;5.47;;;1.63;;
50549;SDS011;36505;52.512;13.460;2022-10-26T14:19:29;4.82;;;1.90;;
50549;SDS011;36505;52.512;13.460;2022-10-26T14:21:58;7.70;;;2.15;;
50549;SDS011;36505;52.512;13.460;2022-10-26T14:24:34;6.00;;;1.83;;
50549;SDS011;36505;52.512;13.460;2022-10-26T14:27:13;5.25;;;2.33;;
50549;SDS011;36505;52.512;13.460;2022-10-26T14:29:40;5.63;;;1.77;;
50549;SDS011;36505;52.512;13.460;2022-10-26T14:34:47;7.95;;;2.47;;
50549;SDS011;36505;52.512;13.460;2022-10-26T14:37:14;4.75;;;2.00;;
50549;SDS011;36505;52.512;13.460;2022-10-26T14:39:48;10.50;;;2.30;;
50549;SDS011;36505;52.512;13.460;2022-10-26T14:42:22;8.18;;;1.90;;
50549;SDS011;36505;52.512;13.460;2022-10-26T14:44:52;7.00;;;2.05;;
50549;SDS011;36505;52.512;13.460;2022-10-26T14:47:28;5.60;;;1.90;;
50549;SDS011;36505;52.512;13.460;2022-10-26T14:49:55;6.07;;;2.03;;
50549;SDS011;36505;52.512;13.460;2022-10-26T14:52:23;6.03;;;1.77;;
50549;SDS011;36505;52.512;13.460;2022-10-26T14:54:58;9.27;;;2.15;;
50549;SDS011;36505;52.512;13.460;2022-10-26T14:57:29;6.15;;;1.73;;
50549;SDS011;36505;52.512;13.460;2022-10-26T15:00:00;10.43;;;2.05;;
50549;SDS011;36505;52.512;13.460;2022-10-26T15:02:37;9.25;;;3.50;;
50549;SDS011;36505;52.512;13.460;2022-10-26T15:05:14;6.70;;;1.70;;
50549;SDS011;36505;52.512;13.460;2022-10-26T15:07:41;10.80;;;2.47;;
50549;SDS011;36505;52.512;13.460;2022-10-26T15:15:49;8.00;;;2.10;;
50549;SDS011;36505;52.512;13.460;2022-10-26T15:18:28;6.60;;;2.10;;
50549;SDS011;36505;52.512;13.460;2022-10-26T15:20:57;4.53;;;2.10;;
50549;SDS011;36505;52.512;13.460;2022-10-26T15:23:23;9.63;;;2.95;;
50549;SDS011;36505;52.512;13.460;2022-10-26T15:25:52;6.45;;;1.73;;
50549;SDS011;36505;52.512;13.460;2022-10-26T15:33:23;5.80;;;2.00;;
50549;SDS011;36505;52.512;13.460;2022-10-26T15:35:48;8.45;;;2.55;;
50549;SDS011;36505;52.512;13.460;2022-10-26T15:38:14;13.55;;;3.55;;
50549;SDS011;36505;52.512;13.460;2022-10-26T15:40:42;7.72;;;2.63;;
50549;SDS011;36505;52.512;13.460;2022-10-26T15:43:09;10.35;;;2.42;;
50549;SDS011;36505;52.512;13.460;2022-10-26T15:45:36;13.55;;;4.22;;
50549;SDS011;36505;52.512;13.460;2022-10-26T15:48:20;8.57;;;2.75;;
50549;SDS011;36505;52.512;13.460;2022-10-26T15:50:48;12.23;;;3.28;;
50549;SDS011;36505;52.512;13.460;2022-10-26T15:53:18;6.72;;;3.05;;
50549;SDS011;36505;52.512;13.460;2022-10-26T15:55:45;10.07;;;2.38;;
50549;SDS011;36505;52.512;13.460;2022-10-26T15:58:11;8.90;;;3.75;;
50549;SDS011;36505;52.512;13.460;2022-10-26T16:00:36;8.45;;;3.35;;
50549;SDS011;36505;52.512;13.460;2022-10-26T16:03:02;7.95;;;3.70;;
50549;SDS011;36505;52.512;13.460;2022-10-26T16:05:27;6.65;;;3.17;;
50549;SDS011;36505;52.512;13.460;2022-10-26T16:07:52;7.32;;;3.55;;
50549;SDS011;36505;52.512;13.460;2022-10-26T16:10:21;11.93;;;3.25;;
50549;SDS011;36505;52.512;13.460;2022-10-26T16:12:49;7.82;;;3.78;;
50549;SDS011;36505;52.512;13.460;2022-10-26T16:15:19;17.00;;;4.07;;
50549;SDS011;36505;52.512;13.460;2022-10-26T16:17:46;9.95;;;3.58;;
50549;SDS011;36505;52.512;13.460;2022-10-26T16:20:12;15.75;;;3.80;;
50549;SDS011;36505;52.512;13.460;2022-10-26T16:22:40;12.52;;;3.45;;
50549;SDS011;36505;52.512;13.460;2022-10-26T16:25:10;7.75;;;2.97;;
50549;SDS011;36505;52.512;13.460;2022-10-26T16:27:36;9.75;;;3.40;;
50549;SDS011;36505;52.512;13.460;2022-10-26T16:30:01;13.77;;;3.90;;
50549;SDS011;36505;52.512;13.460;2022-10-26T16:32:27;7.53;;;3.42;;
50549;SDS011;36505;52.512;13.460;2022-10-26T16:34:52;12.77;;;3.60;;
50549;SDS011;36505;52.512;13.460;2022-10-26T16:37:17;13.82;;;3.60;;
50549;SDS011;36505;52.512;13.460;2022-10-26T16:39:43;7.70;;;3.38;;
50549;SDS011;36505;52.512;13.460;2022-10-26T16:42:08;11.35;;;3.97;;
50549;SDS011;36505;52.512;13.460;2022-10-26T16:44:33;9.45;;;4.05;;
50549;SDS011;36505;52.512;13.460;2022-10-26T16:46:59;12.93;;;4.25;;
50549;SDS011;36505;52.512;13.460;2022-10-26T16:49:24;15.00;;;4.22;;
50549;SDS011;36505;52.512;13.460;2022-10-26T16:51:50;11.93;;;3.50;;
50549;SDS011;36505;52.512;13.460;2022-10-26T16:54:16;13.13;;;3.90;;
50549;SDS011;36505;52.512;13.460;2022-10-26T16:56:41;11.98;;;3.70;;
50549;SDS011;36505;52.512;13.460;2022-10-26T16:59:07;10.38;;;4.07;;
50549;SDS011;36505;52.512;13.460;2022-10-26T17:01:34;15.63;;;5.78;;
50549;SDS011;36505;52.512;13.460;2022-10-26T17:03:59;14.52;;;5.18;;
50549;SDS011;36505;52.512;13.460;2022-10-26T17:06:25;10.95;;;4.32;;
50549;SDS011;36505;52.512;13.460;2022-10-26T17:08:51;14.13;;;3.88;;
50549;SDS011;36505;52.512;13.460;2022-10-26T17:11:17;10.57;;;4.28;;
50549;SDS011;36505;52.512;13.460;2022-10-26T17:13:44;10.07;;;4.20;;
50549;SDS011;36505;52.512;13.460;2022-10-26T17:16:11;12.05;;;4.43;;